Time;durP1;ratioP1;P1;durP2;ratioP2;P2;SDS_P1;SDS_P2;PMS_P1;PMS_P2;Temp;Humidity;BMP_temperature;BMP_pressure;BME280_temperature;BME280_humidity;BME280_pressure;Samples;Min_cycle;Max_cycle;Signal;HPM_P1;HPM_P2
2022/10/02 00:00:15;;;;;;;9.88;2.45;;;11.50;99.90;;;;;;6205813;22;20023;-84
2022/10/02 00:02:59;;;;;;;12.40;2.83;;;11.50;99.90;;;;;;6272920;22;20079;-84
2022/10/02 00:05:43;;;;;;;12.23;2.65;;;11.40;99.90;;;;;;6273855;22;20519;-84
2022/10/02 00:08:27;;;;;;;10.32;2.28;;;11.40;99.90;;;;;;6274095;22;20061;-84
2022/10/02 00:11:12;;;;;;;10.70;2.33;;;11.30;99.90;;;;;;6274309;22;20012;-84
2022/10/02 00:13:45;;;;;;;10.85;2.75;;;11.30;99.90;;;;;;6272141;22;20451;-84
2022/10/02 00:16:34;;;;;;;8.43;2.42;;;11.30;99.90;;;;;;6274086;22;20011;-84
2022/10/02 00:19:01;;;;;;;12.07;2.90;;;11.20;99.90;;;;;;6273213;22;20440;-84
2022/10/02 00:21:56;;;;;;;8.25;2.70;;;11.20;99.90;;;;;;6274411;22;20007;-85
2022/10/02 00:24:26;;;;;;;9.02;2.45;;;11.20;99.90;;;;;;6246178;22;20018;-84
2022/10/02 00:26:59;;;;;;;9.63;2.08;;;11.20;99.90;;;;;;6274019;22;20073;-84
2022/10/02 00:29:54;;;;;;;17.27;3.13;;;11.20;99.90;;;;;;6273864;22;20083;-84
2022/10/02 00:32:57;;;;;;;11.98;2.53;;;11.10;99.90;;;;;;6271007;22;20445;-84
2022/10/02 00:35:48;;;;;;;12.02;2.72;;;11.10;99.90;;;;;;6273625;22;20012;-84
2022/10/02 00:38:26;;;;;;;13.35;2.75;;;11.00;99.90;;;;;;6273257;22;20479;-84
2022/10/02 00:41:19;;;;;;;9.27;2.38;;;10.90;99.90;;;;;;6271401;22;20456;-84
2022/10/02 00:44:12;;;;;;;9.52;2.60;;;10.90;99.90;;;;;;6272312;22;20031;-84
2022/10/02 00:47:08;;;;;;;19.33;2.75;;;10.80;99.90;;;;;;6271549;22;20020;-84
2022/10/02 00:49:36;;;;;;;11.70;2.70;;;10.80;99.90;;;;;;6271863;22;20087;-84
2022/10/02 00:52:08;;;;;;;15.23;3.47;;;10.90;99.90;;;;;;6271856;22;20453;-84
2022/10/02 00:55:02;;;;;;;16.17;3.35;;;10.70;99.90;;;;;;6271877;22;20046;-84
2022/10/02 00:57:27;;;;;;;10.38;2.38;;;10.70;99.90;;;;;;6245824;22;20016;-84
2022/10/02 01:00:07;;;;;;;12.85;3.08;;;10.60;99.90;;;;;;6271649;22;20060;-84
2022/10/02 01:02:46;;;;;;;14.38;2.83;;;10.60;99.90;;;;;;6271557;22;20412;-84
2022/10/02 01:05:12;;;;;;;16.83;3.00;;;10.60;99.90;;;;;;6273695;22;20008;-84
2022/10/02 01:07:43;;;;;;;11.40;2.15;;;10.60;99.90;;;;;;6271471;22;20011;-84
2022/10/02 01:10:11;;;;;;;11.70;2.78;;;10.60;99.90;;;;;;6271336;22;20019;-84
2022/10/02 01:12:38;;;;;;;17.20;2.88;;;10.60;99.90;;;;;;6271431;22;20023;-84
2022/10/02 01:15:11;;;;;;;14.23;2.65;;;10.60;99.90;;;;;;6271220;22;20054;-84
2022/10/02 01:17:36;;;;;;;16.10;3.13;;;10.60;99.90;;;;;;6273455;22;20445;-84
2022/10/02 01:20:05;;;;;;;13.98;2.58;;;10.50;99.90;;;;;;6245715;22;20015;-84
2022/10/02 01:22:41;;;;;;;16.75;3.22;;;10.60;99.90;;;;;;6271883;22;20015;-84
2022/10/02 01:25:07;;;;;;;16.60;3.63;;;10.50;99.90;;;;;;6271910;22;20480;-84
2022/10/02 01:27:34;;;;;;;13.82;3.67;;;10.50;99.90;;;;;;6274080;22;20008;-84
2022/10/02 01:30:06;;;;;;;12.98;2.75;;;10.60;99.90;;;;;;6272906;22;20020;-84
2022/10/02 01:32:36;;;;;;;14.30;2.75;;;10.50;99.90;;;;;;6270670;22;20012;-84
2022/10/02 01:35:03;;;;;;;20.83;2.65;;;10.50;99.90;;;;;;6271117;22;20015;-84
2022/10/02 01:37:32;;;;;;;15.10;3.03;;;10.60;99.90;;;;;;6246251;22;20092;-84
2022/10/02 01:40:08;;;;;;;10.98;2.08;;;10.60;99.90;;;;;;6273334;22;20071;-84
2022/10/02 01:42:34;;;;;;;13.38;3.03;;;10.60;99.90;;;;;;6272853;22;20019;-85
2022/10/02 01:45:02;;;;;;;15.45;2.25;;;10.60;99.90;;;;;;6270579;22;20086;-84
2022/10/02 01:47:40;;;;;;;13.75;2.67;;;10.60;99.90;;;;;;6273124;22;20004;-84
2022/10/02 01:50:12;;;;;;;16.67;2.60;;;10.70;99.90;;;;;;6271397;22;20077;-85
2022/10/02 01:52:48;;;;;;;13.77;2.47;;;10.60;99.90;;;;;;6273450;22;20437;-84
2022/10/02 01:55:33;;;;;;;18.05;2.58;;;10.60;99.90;;;;;;6271020;22;20018;-84
2022/10/02 01:58:20;;;;;;;14.50;2.53;;;10.70;99.90;;;;;;6273137;22;20023;-84
2022/10/02 02:01:04;;;;;;;14.77;2.42;;;10.70;99.90;;;;;;6271424;22;20345;-84
2022/10/02 02:03:42;;;;;;;9.63;2.28;;;10.70;99.90;;;;;;6273766;22;20015;-84
2022/10/02 02:06:19;;;;;;;14.15;2.10;;;10.70;99.90;;;;;;6271583;22;20051;-84
2022/10/02 02:09:15;;;;;;;17.67;3.03;;;11.10;99.90;;;;;;6271526;22;20119;-84
2022/10/02 02:12:11;;;;;;;11.30;2.03;;;10.70;99.90;;;;;;6271092;22;20397;-84
2022/10/02 02:15:06;;;;;;;8.70;2.20;;;10.70;99.90;;;;;;6223787;22;20077;-84
2022/10/02 02:17:49;;;;;;;10.63;2.23;;;10.70;99.90;;;;;;6270916;22;20122;-84
2022/10/02 02:20:51;;;;;;;12.48;2.10;;;10.70;99.90;;;;;;6271275;22;20582;-84
2022/10/02 02:23:31;;;;;;;13.50;2.28;;;10.70;99.90;;;;;;6245723;22;20365;-85
2022/10/02 02:26:01;;;;;;;17.77;2.20;;;10.70;99.90;;;;;;6271513;22;20022;-84
2022/10/02 02:28:30;;;;;;;9.88;1.60;;;10.70;99.90;;;;;;6272389;22;20019;-84
2022/10/02 02:30:58;;;;;;;10.50;1.83;;;10.70;99.90;;;;;;6245233;22;20023;-84
2022/10/02 02:33:35;;;;;;;11.13;2.10;;;10.90;99.90;;;;;;6273086;22;20018;-84
2022/10/02 02:36:06;;;;;;;10.32;1.98;;;10.60;99.90;;;;;;6271017;22;20015;-84
2022/10/02 02:38:37;;;;;;;11.98;1.70;;;10.70;99.90;;;;;;6272898;22;20085;-84
2022/10/02 02:41:08;;;;;;;11.07;1.92;;;10.70;99.90;;;;;;6271086;22;20062;-84
2022/10/02 02:43:42;;;;;;;15.20;2.03;;;10.70;99.90;;;;;;6272842;22;20008;-84
2022/10/02 02:46:22;;;;;;;10.20;1.58;;;10.70;99.90;;;;;;6271493;22;20098;-84
2022/10/02 02:48:56;;;;;;;11.82;2.15;;;10.70;99.90;;;;;;6271719;22;20019;-84
2022/10/02 02:51:29;;;;;;;8.40;1.80;;;10.70;99.90;;;;;;6271331;22;20472;-84
2022/10/02 02:54:34;;;;;;;16.15;1.60;;;10.70;99.90;;;;;;6271470;22;20012;-84
2022/10/02 02:57:03;;;;;;;8.18;1.60;;;10.70;99.90;;;;;;6130182;23;20064;-85
2022/10/02 02:59:31;;;;;;;11.18;2.00;;;10.80;99.90;;;;;;6180454;23;20051;-84
2022/10/02 03:01:57;;;;;;;11.90;2.15;;;10.80;99.90;;;;;;6154834;23;20013;-84
2022/10/02 03:04:23;;;;;;;14.25;2.45;;;10.80;99.90;;;;;;6155308;23;20055;-84
2022/10/02 03:06:57;;;;;;;9.70;1.90;;;10.80;99.90;;;;;;6180206;23;20071;-84
2022/10/02 03:09:24;;;;;;;10.68;1.83;;;10.80;99.90;;;;;;6130906;23;20492;-84
2022/10/02 03:12:08;;;;;;;11.50;2.28;;;10.80;99.90;;;;;;6179813;23;20084;-84
2022/10/02 03:14:57;;;;;;;12.60;1.98;;;10.80;99.90;;;;;;6155555;23;20810;-84
2022/10/02 03:17:44;;;;;;;19.15;2.88;;;10.80;99.90;;;;;;6131757;23;20088;-84
2022/10/02 03:20:27;;;;;;;16.83;2.08;;;10.80;99.90;;;;;;6180812;23;20009;-85
2022/10/02 03:23:28;;;;;;;15.90;2.30;;;10.80;99.90;;;;;;6180442;23;20041;-84
2022/10/02 03:26:09;;;;;;;18.00;2.08;;;10.80;99.90;;;;;;6179672;23;20446;-85
2022/10/02 03:28:50;;;;;;;12.45;2.15;;;10.90;99.90;;;;;;6130736;23;20450;-84
2022/10/02 03:31:18;;;;;;;15.45;2.30;;;10.90;99.90;;;;;;6155502;23;20469;-84
2022/10/02 03:33:45;;;;;;;12.73;1.85;;;10.90;99.90;;;;;;6272484;22;20090;-85
2022/10/02 03:36:13;;;;;;;11.45;2.08;;;10.90;99.90;;;;;;6272687;22;20019;-84
2022/10/02 03:38:40;;;;;;;14.80;2.05;;;11.00;99.90;;;;;;6246878;22;20015;-84
2022/10/02 03:41:06;;;;;;;18.02;2.58;;;11.00;99.90;;;;;;6273660;22;20027;-84
2022/10/02 03:43:32;;;;;;;15.88;2.42;;;11.00;99.90;;;;;;6272613;22;20441;-85
2022/10/02 03:45:57;;;;;;;15.60;2.60;;;11.00;99.90;;;;;;6247149;22;20058;-84
2022/10/02 03:48:23;;;;;;;9.65;2.20;;;11.00;99.90;;;;;;6247496;22;20122;-84
2022/10/02 03:50:49;;;;;;;14.60;2.10;;;11.00;99.90;;;;;;6272172;22;20023;-84
2022/10/02 03:53:22;;;;;;;12.23;2.20;;;11.00;99.90;;;;;;6247049;22;20019;-85
2022/10/02 03:56:02;;;;;;;15.60;2.28;;;11.00;99.90;;;;;;6271800;22;20451;-84
2022/10/02 03:58:28;;;;;;;11.95;2.10;;;11.00;99.90;;;;;;6272313;22;20051;-84
2022/10/02 04:01:02;;;;;;;18.92;3.17;;;11.00;99.90;;;;;;6271891;22;20067;-84
2022/10/02 04:03:34;;;;;;;13.18;2.17;;;11.00;99.90;;;;;;6273687;22;20012;-84
2022/10/02 04:06:04;;;;;;;16.17;2.30;;;11.10;99.90;;;;;;6272317;22;20470;-84
2022/10/02 04:08:46;;;;;;;14.60;2.42;;;11.00;99.90;;;;;;6274300;22;20078;-84
2022/10/02 04:11:26;;;;;;;11.13;2.25;;;11.00;99.90;;;;;;6272295;22;20015;-85
2022/10/02 04:14:21;;;;;;;17.00;2.45;;;11.00;99.90;;;;;;6273198;22;20012;-84
2022/10/02 04:16:55;;;;;;;14.32;2.35;;;11.00;99.90;;;;;;6271843;22;20030;-84
2022/10/02 04:19:53;;;;;;;13.60;2.30;;;10.90;99.90;;;;;;6273704;22;20027;-84
2022/10/02 04:22:19;;;;;;;18.63;2.33;;;10.90;99.90;;;;;;6273842;22;20023;-84
2022/10/02 04:24:48;;;;;;;14.90;2.60;;;10.90;99.90;;;;;;6270319;22;20345;-84
2022/10/02 04:27:35;;;;;;;13.52;2.70;;;10.90;99.90;;;;;;6271405;22;20388;-84
2022/10/02 04:30:12;;;;;;;12.80;1.88;;;10.90;99.90;;;;;;6271377;22;20037;-84
2022/10/02 04:32:38;;;;;;;19.25;2.70;;;10.80;99.90;;;;;;6272238;22;20012;-84
2022/10/02 04:35:32;;;;;;;16.38;2.35;;;10.80;99.90;;;;;;6271309;22;20257;-84
2022/10/02 04:38:35;;;;;;;11.93;2.20;;;10.80;99.90;;;;;;6270910;22;20019;-84
2022/10/02 04:41:33;;;;;;;15.55;2.42;;;10.80;99.90;;;;;;6271057;22;20185;-84
2022/10/02 04:44:21;;;;;;;13.23;2.33;;;10.80;99.90;;;;;;6271043;22;20016;-84
2022/10/02 04:46:50;;;;;;;15.10;2.03;;;10.70;99.90;;;;;;6270578;22;20020;-84
2022/10/02 04:49:33;;;;;;;14.07;2.72;;;10.70;99.90;;;;;;6270871;22;20015;-84
2022/10/02 04:52:17;;;;;;;11.18;2.15;;;10.70;99.90;;;;;;6272994;22;20019;-84
2022/10/02 04:55:20;;;;;;;15.90;2.28;;;10.70;99.90;;;;;;6272652;22;20022;-84
2022/10/02 04:58:04;;;;;;;15.20;2.20;;;10.70;99.90;;;;;;6271019;22;20019;-84
2022/10/02 05:00:46;;;;;;;10.80;2.15;;;10.70;99.90;;;;;;6271160;22;20016;-83
2022/10/02 05:03:48;;;;;;;14.25;2.30;;;10.60;99.90;;;;;;6272777;22;20417;-84
2022/10/02 05:06:44;;;;;;;19.55;2.70;;;10.60;99.90;;;;;;6273015;22;20007;-84
2022/10/02 05:09:27;;;;;;;15.70;2.60;;;10.60;99.90;;;;;;6272965;22;20043;-84
2022/10/02 05:12:27;;;;;;;15.82;2.20;;;10.60;99.90;;;;;;6270166;22;20019;-84
2022/10/02 05:15:14;;;;;;;11.18;2.00;;;10.60;99.90;;;;;;6272701;22;20011;-84
2022/10/02 05:17:53;;;;;;;14.50;1.75;;;10.60;99.90;;;;;;6271021;22;20027;-84
2022/10/02 05:21:02;;;;;;;12.88;1.98;;;10.50;99.90;;;;;;6271840;22;20459;-84
2022/10/02 05:23:36;;;;;;;13.23;2.47;;;10.50;99.90;;;;;;6273209;22;20031;-84
2022/10/02 05:26:07;;;;;;;;;;;10.50;99.90;;;;;;6272912;22;20023;-84
2022/10/02 05:28:54;;;;;;;14.02;2.22;;;10.40;99.90;;;;;;6273622;22;19955;-84
2022/10/02 05:31:25;;;;;;;13.88;2.35;;;10.40;99.90;;;;;;6272267;22;20007;-84
2022/10/02 05:34:00;;;;;;;11.07;2.08;;;10.40;99.90;;;;;;6271602;22;20016;-84
2022/10/02 05:36:44;;;;;;;;;;;10.40;99.90;;;;;;6271640;22;20012;-84
2022/10/02 05:39:25;;;;;;;14.85;2.15;;;10.30;99.90;;;;;;6275026;22;19915;-84
2022/10/02 05:42:02;;;;;;;11.88;2.17;;;10.30;99.90;;;;;;6273121;22;20070;-84
2022/10/02 05:44:41;;;;;;;14.10;1.95;;;10.20;99.90;;;;;;6273145;22;20020;-84
2022/10/02 05:47:18;;;;;;;12.98;1.92;;;10.20;99.90;;;;;;6272864;22;20027;-85
2022/10/02 05:50:01;;;;;;;20.73;2.20;;;10.20;99.90;;;;;;6272967;22;20079;-84
2022/10/02 05:52:40;;;;;;;14.73;2.13;;;10.20;99.90;;;;;;6273047;22;20015;-84
2022/10/02 05:55:27;;;;;;;17.95;2.03;;;10.10;99.90;;;;;;6271371;22;20012;-84
2022/10/02 05:58:10;;;;;;;16.20;2.13;;;10.10;99.90;;;;;;6269617;22;20099;-84
2022/10/02 06:00:45;;;;;;;16.05;2.35;;;10.10;99.90;;;;;;6270755;22;20074;-84
2022/10/02 06:03:25;;;;;;;18.55;2.55;;;10.10;99.90;;;;;;6271817;22;20016;-84
2022/10/02 06:06:04;;;;;;;18.50;2.33;;;10.10;99.90;;;;;;6272646;22;20023;-84
2022/10/02 06:08:39;;;;;;;14.50;2.55;;;10.10;99.90;;;;;;6271314;22;20388;-84
2022/10/02 06:11:45;;;;;;;9.10;2.08;;;10.10;99.90;;;;;;6270366;22;20008;-84
2022/10/02 06:14:36;;;;;;;21.58;2.95;;;10.10;99.90;;;;;;6177786;23;20413;-84
2022/10/02 06:17:23;;;;;;;12.43;2.22;;;10.10;99.90;;;;;;6153310;23;20021;-84
2022/10/02 06:20:24;;;;;;;12.02;2.47;;;10.10;99.90;;;;;;6153876;23;20024;-85
2022/10/02 06:23:13;;;;;;;14.82;2.25;;;10.10;99.90;;;;;;6135036;23;20067;-85
2022/10/02 06:25:46;;;;;;;19.90;2.33;;;10.10;99.90;;;;;;6153147;23;20017;-84
2022/10/02 06:28:36;;;;;;;17.90;1.90;;;10.20;99.90;;;;;;6178027;23;20024;-84
2022/10/02 06:31:17;;;;;;;13.40;2.03;;;10.20;99.90;;;;;;6179092;23;20080;-84
2022/10/02 06:33:43;;;;;;;12.98;2.28;;;10.20;99.90;;;;;;6152369;23;20474;-84
2022/10/02 06:36:28;;;;;;;19.90;2.58;;;10.20;99.90;;;;;;6178190;23;20020;-85
2022/10/02 06:39:02;;;;;;;12.43;2.20;;;10.20;99.90;;;;;;6153218;23;20068;-84
2022/10/02 06:41:48;;;;;;;12.73;2.05;;;10.30;99.90;;;;;;6177881;23;20144;-84
2022/10/02 06:44:40;;;;;;;18.23;2.53;;;10.30;99.90;;;;;;6178348;23;20009;-84
2022/10/02 06:47:12;;;;;;;16.95;2.25;;;10.30;99.90;;;;;;6186328;22;20013;-85
2022/10/02 06:49:50;;;;;;;13.90;2.35;;;10.30;99.90;;;;;;6270506;22;20019;-84
2022/10/02 06:52:23;;;;;;;13.35;2.00;;;10.30;99.90;;;;;;6271114;22;20012;-84
2022/10/02 06:54:58;;;;;;;21.45;2.53;;;10.40;99.90;;;;;;6270157;22;20070;-85
2022/10/02 06:57:53;;;;;;;12.77;2.13;;;10.50;99.90;;;;;;6271216;22;20309;-85
2022/10/02 07:00:20;;;;;;;17.13;2.25;;;10.50;99.90;;;;;;6229090;22;20086;-85
2022/10/02 07:03:05;;;;;;;16.58;2.65;;;10.60;99.90;;;;;;6270275;22;20069;-84
2022/10/02 07:05:36;;;;;;;;;;;10.70;99.90;;;;;;6273615;22;20027;-84
2022/10/02 07:08:14;;;;;;;15.00;2.08;;;10.80;99.90;;;;;;6271140;22;19914;-85
2022/10/02 07:11:00;;;;;;;13.45;2.10;;;11.00;99.90;;;;;;6272860;22;20012;-85
2022/10/02 07:13:38;;;;;;;16.88;2.13;;;11.10;99.90;;;;;;6273518;22;20016;-85
2022/10/02 07:16:27;;;;;;;12.98;2.53;;;11.20;99.90;;;;;;6273348;22;20012;-86
2022/10/02 07:19:18;;;;;;;13.88;2.17;;;11.30;99.90;;;;;;6270533;22;20376;-86
2022/10/02 07:22:21;;;;;;;16.30;2.03;;;11.40;99.90;;;;;;6272515;22;20019;-86
2022/10/02 07:25:31;;;;;;;15.23;2.70;;;11.50;99.90;;;;;;6243607;22;20050;-86
2022/10/02 07:28:18;;;;;;;9.57;1.77;;;11.50;99.90;;;;;;6270659;22;20206;-83
2022/10/02 07:31:08;;;;;;;11.20;1.98;;;11.60;99.90;;;;;;6270759;22;20433;-84
2022/10/02 07:33:46;;;;;;;11.93;2.03;;;11.70;99.90;;;;;;6270808;22;20020;-84
2022/10/02 07:36:21;;;;;;;12.30;2.30;;;11.80;99.90;;;;;;6270261;22;20023;-84
2022/10/02 07:39:07;;;;;;;12.07;2.20;;;11.80;99.90;;;;;;6272741;22;20011;-84
2022/10/02 07:41:54;;;;;;;17.45;2.17;;;11.90;99.90;;;;;;6272382;22;20018;-83
2022/10/02 07:44:43;;;;;;;17.42;2.78;;;11.90;99.90;;;;;;6271031;22;20126;-83
2022/10/02 07:47:18;;;;;;;8.85;2.22;;;12.00;99.90;;;;;;6272279;22;20043;-83
2022/10/02 07:49:50;;;;;;;;;;;12.00;99.90;;;;;;6272528;22;20445;-83
2022/10/02 07:52:45;;;;;;;12.93;1.88;;;12.10;99.90;;;;;;6272177;22;19939;-83
2022/10/02 07:55:17;;;;;;;9.27;1.73;;;12.20;99.90;;;;;;6272743;22;20016;-83
2022/10/02 07:58:01;;;;;;;9.65;1.80;;;12.20;99.90;;;;;;6272150;22;20014;-83
2022/10/02 08:00:35;;;;;;;11.80;1.75;;;12.30;99.90;;;;;;6271975;22;20019;-83
2022/10/02 08:03:11;;;;;;;13.15;2.20;;;12.50;99.90;;;;;;6272056;22;20117;-83
2022/10/02 08:05:44;;;;;;;9.05;1.52;;;12.60;99.90;;;;;;6272524;22;20230;-83
2022/10/02 08:08:28;;;;;;;10.15;2.40;;;12.70;99.90;;;;;;6270489;22;20077;-84
2022/10/02 08:11:02;;;;;;;9.38;1.95;;;12.70;99.90;;;;;;6272312;22;20015;-84
2022/10/02 08:13:36;;;;;;;14.88;2.50;;;12.70;99.90;;;;;;6271754;22;20008;-84
2022/10/02 08:16:03;;;;;;;11.57;2.22;;;12.70;99.90;;;;;;6271329;22;20035;-85
2022/10/02 08:18:37;;;;;;;10.73;1.83;;;12.70;99.90;;;;;;6272065;22;20455;-84
2022/10/02 08:21:10;;;;;;;12.40;2.07;;;12.60;99.90;;;;;;6272017;22;20012;-84
2022/10/02 08:24:00;;;;;;;10.40;1.92;;;12.60;99.90;;;;;;6272477;22;20023;-85
2022/10/02 08:26:33;;;;;;;19.95;2.85;;;12.60;99.90;;;;;;6272670;22;20041;-85
2022/10/02 08:29:25;;;;;;;14.60;2.83;;;12.60;99.90;;;;;;6272597;22;20014;-85
2022/10/02 08:31:52;;;;;;;15.73;2.75;;;12.50;99.90;;;;;;6269682;22;20356;-85
2022/10/02 08:34:22;;;;;;;9.55;1.73;;;12.50;99.90;;;;;;6271780;22;20011;-84
2022/10/02 08:37:27;;;;;;;12.93;2.35;;;12.50;99.90;;;;;;6270111;22;20026;-85
2022/10/02 08:40:17;;;;;;;13.47;2.37;;;12.50;99.90;;;;;;6268876;22;20011;-85
2022/10/02 08:43:20;;;;;;;18.15;2.53;;;12.50;99.90;;;;;;6269839;22;20242;-85
2022/10/02 08:46:21;;;;;;;12.95;2.70;;;12.50;99.90;;;;;;6271969;22;20012;-86
2022/10/02 08:49:05;;;;;;;15.07;2.35;;;12.50;99.90;;;;;;6242181;22;20018;-85
2022/10/02 08:51:39;;;;;;;17.77;2.47;;;12.50;99.90;;;;;;6270451;22;20049;-86
2022/10/02 08:54:14;;;;;;;8.75;3.13;;;12.50;99.90;;;;;;6271813;22;20015;-86
2022/10/02 08:57:01;;;;;;;19.00;8.70;;;12.60;99.90;;;;;;6272220;22;20012;-88
2022/10/02 08:59:36;;;;;;;12.40;5.53;;;12.70;99.90;;;;;;6267825;22;20090;-87
2022/10/02 09:02:20;;;;;;;17.75;6.93;;;13.10;99.90;;;;;;6272214;22;20012;-86
2022/10/02 09:05:00;;;;;;;13.43;4.80;;;13.00;99.90;;;;;;6270317;22;20337;-87
2022/10/02 09:08:06;;;;;;;8.77;3.47;;;13.10;99.90;;;;;;6270944;22;20039;-86
2022/10/02 09:10:49;;;;;;;14.00;6.97;;;13.30;99.90;;;;;;6269522;22;20524;-86
2022/10/02 09:13:41;;;;;;;12.63;4.65;;;13.50;99.90;;;;;;6270642;22;20041;-87
2022/10/02 09:16:16;;;;;;;12.15;3.55;;;13.60;99.90;;;;;;6270252;22;20019;-89
2022/10/02 09:19:06;;;;;;;11.45;3.17;;;13.70;99.90;;;;;;6269179;22;20022;-86
2022/10/02 09:21:50;;;;;;;14.82;4.15;;;13.80;99.90;;;;;;6270627;22;20054;-88
2022/10/02 09:24:28;;;;;;;13.32;2.90;;;13.90;99.90;;;;;;6244195;22;20070;-89
2022/10/02 09:27:17;;;;;;;10.73;2.95;;;14.00;99.90;;;;;;6270078;22;20096;-86
2022/10/02 09:30:19;;;;;;;6.40;1.80;;;14.10;99.90;;;;;;6271319;22;20037;-86
2022/10/02 09:33:34;;;;;;;12.85;2.78;;;14.30;99.90;;;;;;6271044;22;20452;-86
2022/10/02 09:36:08;;;;;;;10.88;1.90;;;14.30;99.90;;;;;;6269503;22;20011;-86
2022/10/02 09:39:16;;;;;;;10.15;1.63;;;14.40;99.90;;;;;;6270072;22;20142;-86
2022/10/02 09:41:48;;;;;;;9.75;1.80;;;14.60;99.90;;;;;;6269209;22;20345;-86
2022/10/02 09:44:33;;;;;;;11.52;1.92;;;14.70;99.90;;;;;;6271024;22;20015;-86
2022/10/02 09:47:34;;;;;;;7.10;1.55;;;14.70;99.90;;;;;;6269861;22;20036;-87
2022/10/02 09:50:16;;;;;;;7.63;1.92;;;14.70;99.90;;;;;;6273004;22;20070;-86
2022/10/02 09:52:56;;;;;;;11.57;1.85;;;14.70;99.90;;;;;;6271472;22;20012;-86
2022/10/02 09:55:57;;;;;;;12.35;3.63;;;14.70;99.90;;;;;;6270121;22;20016;-87
2022/10/02 09:58:56;;;;;;;10.05;2.15;;;14.70;99.90;;;;;;6269819;22;20400;-87
2022/10/02 10:01:45;;;;;;;10.20;2.70;;;14.60;99.90;;;;;;6271944;22;20022;-87
2022/10/02 10:04:45;;;;;;;7.68;2.28;;;14.50;99.90;;;;;;6271420;22;20632;-87
2022/10/02 10:07:38;;;;;;;13.30;2.80;;;14.40;99.90;;;;;;6272323;22;20453;-86
2022/10/02 10:10:40;;;;;;;11.80;2.50;;;14.30;99.90;;;;;;6273402;22;20434;-86
2022/10/02 10:13:16;;;;;;;12.75;2.17;;;14.30;99.90;;;;;;6271439;22;20012;-86
2022/10/02 10:16:10;;;;;;;13.93;2.15;;;14.40;99.90;;;;;;6273168;22;20014;-85
2022/10/02 10:18:55;;;;;;;11.73;1.75;;;14.60;99.90;;;;;;6273531;22;20015;-85
2022/10/02 10:21:36;;;;;;;11.10;2.65;;;14.80;99.90;;;;;;6273117;22;20051;-85
2022/10/02 10:24:24;;;;;;;16.55;5.28;;;15.00;99.90;;;;;;6272868;22;20420;-85
2022/10/02 10:27:08;;;;;;;13.98;2.47;;;15.20;99.90;;;;;;6245188;22;20078;-85
2022/10/02 10:29:56;;;;;;;15.90;2.50;;;15.40;99.90;;;;;;6271182;22;20019;-85
2022/10/02 10:32:52;;;;;;;11.38;2.00;;;15.50;99.90;;;;;;6271423;22;20437;-85
2022/10/02 10:35:34;;;;;;;13.77;2.25;;;15.70;99.90;;;;;;6271339;22;20023;-85
2022/10/02 10:38:52;;;;;;;18.88;3.25;;;15.80;99.90;;;;;;6273009;22;20016;-86
2022/10/02 10:41:56;;;;;;;17.13;2.85;;;16.00;99.90;;;;;;6220921;22;20020;-85
2022/10/02 10:44:53;;;;;;;8.65;2.33;;;16.20;99.90;;;;;;6272650;22;20368;-86
2022/10/02 10:47:32;;;;;;;11.23;2.38;;;16.30;99.90;;;;;;6273441;22;20011;-86
2022/10/02 10:50:25;;;;;;;14.55;2.85;;;16.40;99.90;;;;;;6273103;22;20098;-86
2022/10/02 10:53:18;;;;;;;16.80;2.20;;;16.70;99.90;;;;;;6272965;22;20086;-86
2022/10/02 10:56:21;;;;;;;13.30;2.00;;;17.00;99.90;;;;;;6272864;22;20016;-86
2022/10/02 10:59:28;;;;;;;9.65;1.98;;;17.20;99.90;;;;;;6272545;22;20078;-87
2022/10/02 11:02:25;;;;;;;13.68;1.85;;;17.30;99.90;;;;;;6178516;23;20020;-86
2022/10/02 11:04:57;;;;;;;12.30;3.00;;;17.30;99.90;;;;;;6178346;23;20017;-86
2022/10/02 11:07:56;;;;;;;10.55;2.33;;;17.20;99.90;;;;;;6178838;23;20009;-86
2022/10/02 11:11:01;;;;;;;11.95;2.05;;;17.20;99.90;;;;;;6177709;23;20048;-86
2022/10/02 11:13:42;;;;;;;16.00;2.23;;;17.20;99.90;;;;;;6175158;23;20017;-86
2022/10/02 11:16:42;;;;;;;11.05;1.63;;;17.20;99.90;;;;;;6177053;23;20017;-87
2022/10/02 11:19:11;;;;;;;14.00;1.88;;;17.30;99.90;;;;;;6176665;23;20517;-87
2022/10/02 11:22:12;;;;;;;11.93;2.00;;;17.30;99.90;;;;;;6154250;23;20017;-85
2022/10/02 11:25:07;;;;;;;12.10;2.10;;;17.30;99.90;;;;;;6178127;23;20016;-87
2022/10/02 11:27:48;;;;;;;;;;;17.30;99.90;;;;;;6154196;23;20545;-87
2022/10/02 11:30:25;;;;;;;9.80;1.60;;;17.30;99.90;;;;;;6177162;23;19944;-85
2022/10/02 11:33:11;;;;;;;11.32;1.90;;;17.40;99.90;;;;;;6177492;23;20025;-86
2022/10/02 11:36:03;;;;;;;15.40;5.38;;;17.40;99.90;;;;;;6178287;23;20017;-87
2022/10/02 11:38:56;;;;;;;9.88;2.30;;;17.50;99.90;;;;;;6267109;22;20012;-86
2022/10/02 11:41:42;;;;;;;10.32;2.20;;;17.60;99.90;;;;;;6272735;22;20015;-86
2022/10/02 11:44:27;;;;;;;12.60;1.83;;;17.60;99.90;;;;;;6273030;22;20020;-86
2022/10/02 11:47:06;;;;;;;10.85;2.35;;;17.50;99.90;;;;;;6270760;22;20499;-86
2022/10/02 11:49:58;;;;;;;11.60;1.70;;;17.50;99.90;;;;;;6270745;22;20467;-86
2022/10/02 11:52:36;;;;;;;10.73;1.70;;;17.50;99.90;;;;;;6273128;22;20008;-86
2022/10/02 11:55:53;;;;;;;9.40;1.77;;;17.60;99.90;;;;;;6270689;22;20012;-86
2022/10/02 11:58:32;;;;;;;8.70;1.75;;;17.70;99.90;;;;;;6153547;23;20023;-86
2022/10/02 12:01:39;;;;;;;10.27;2.25;;;17.80;99.90;;;;;;6153936;23;20017;-86
2022/10/02 12:04:42;;;;;;;11.80;2.25;;;17.90;99.90;;;;;;6178533;23;20023;-87
2022/10/02 12:07:10;;;;;;;9.38;1.73;;;18.00;99.90;;;;;;6178685;23;20017;-86
2022/10/02 12:09:47;;;;;;;13.18;2.55;;;18.10;99.90;;;;;;6177545;23;20061;-86
2022/10/02 12:12:37;;;;;;;11.00;2.05;;;18.20;99.90;;;;;;6178172;23;20009;-86
2022/10/02 12:15:24;;;;;;;10.43;1.90;;;18.30;99.90;;;;;;6178314;23;20024;-86
2022/10/02 12:18:13;;;;;;;8.68;1.73;;;18.30;99.90;;;;;;6153285;23;20096;-86
2022/10/02 12:27:08;;;;;;;10.23;2.08;;;18.20;99.90;;;;;;6177769;23;20017;-86
2022/10/02 12:30:03;;;;;;;13.27;1.73;;;18.10;99.90;;;;;;6152904;23;20079;-86
2022/10/02 12:32:59;;;;;;;11.52;1.92;;;17.90;99.90;;;;;;6158804;23;20051;-86
2022/10/02 12:35:30;;;;;;;9.25;2.13;;;18.10;99.90;;;;;;6272632;22;20016;-86
2022/10/02 12:38:15;;;;;;;10.15;1.88;;;18.30;99.90;;;;;;6269882;22;20020;-86
2022/10/02 12:41:07;;;;;;;11.65;3.20;;;18.40;99.90;;;;;;6272529;22;20011;-87
2022/10/02 12:43:53;;;;;;;11.57;3.00;;;18.50;99.90;;;;;;6270098;22;20023;-86
2022/10/02 12:46:48;;;;;;;12.65;2.40;;;18.60;99.90;;;;;;6270503;22;20913;-86
2022/10/02 12:49:29;;;;;;;14.13;2.28;;;18.60;99.90;;;;;;6225116;22;20023;-86
2022/10/02 12:52:14;;;;;;;9.50;1.95;;;18.60;99.90;;;;;;6271583;22;20422;-86
2022/10/02 12:54:42;;;;;;;;;;;18.60;99.90;;;;;;6273014;22;20020;-87
2022/10/02 12:57:54;;;;;;;10.38;1.52;;;18.60;99.90;;;;;;6272309;22;19911;-86
2022/10/02 13:00:38;;;;;;;10.55;1.50;;;18.50;99.90;;;;;;6272271;22;20012;-86
2022/10/02 13:03:37;;;;;;;14.27;2.35;;;18.60;99.90;;;;;;6272034;22;20011;-86
2022/10/02 13:06:30;;;;;;;8.55;1.20;;;18.50;99.90;;;;;;6271979;22;20020;-86
2022/10/02 13:09:23;;;;;;;10.25;1.35;;;18.70;99.90;;;;;;6271851;22;20051;-86
2022/10/02 13:12:09;;;;;;;13.00;1.25;;;18.80;99.90;;;;;;6272374;22;20082;-86
2022/10/02 13:14:34;;;;;;;9.65;1.60;;;18.80;99.90;;;;;;6272197;22;20133;-86
2022/10/02 13:17:23;;;;;;;10.80;1.50;;;19.00;99.90;;;;;;6272086;22;20070;-86
2022/10/02 13:19:49;;;;;;;12.57;1.42;;;19.10;99.90;;;;;;6268868;22;20024;-86
2022/10/02 13:22:33;;;;;;;12.75;1.60;;;19.10;99.90;;;;;;6272060;22;20019;-86
2022/10/02 13:25:21;;;;;;;12.88;1.73;;;18.90;99.90;;;;;;6272431;22;20015;-86
2022/10/02 13:28:03;;;;;;;10.82;1.52;;;18.50;99.90;;;;;;6271341;22;20065;-86
2022/10/02 13:30:38;;;;;;;9.30;1.83;;;18.10;99.90;;;;;;6271856;22;20015;-86
2022/10/02 13:33:21;;;;;;;9.02;1.67;;;18.00;99.90;;;;;;6272083;22;20012;-86
2022/10/02 13:35:58;;;;;;;9.82;1.55;;;17.90;99.90;;;;;;6270568;22;20019;-86
2022/10/02 13:38:26;;;;;;;10.13;1.55;;;18.00;99.90;;;;;;6269545;22;20015;-86
2022/10/02 13:40:59;;;;;;;9.32;1.85;;;18.00;99.90;;;;;;6270218;22;20027;-86
2022/10/02 13:43:51;;;;;;;12.52;2.40;;;18.20;99.90;;;;;;6271733;22;20016;-86
2022/10/02 13:46:44;;;;;;;9.05;2.03;;;18.10;99.90;;;;;;6224109;22;20012;-86
2022/10/02 13:49:28;;;;;;;14.95;1.88;;;18.20;99.90;;;;;;6271088;22;20020;-86
2022/10/02 13:52:15;;;;;;;10.13;1.63;;;18.30;99.90;;;;;;6272236;22;20012;-86
2022/10/02 13:54:53;;;;;;;16.20;2.08;;;18.50;99.90;;;;;;6272382;22;20069;-87
2022/10/02 13:57:32;;;;;;;11.32;1.63;;;18.70;99.90;;;;;;6270219;22;20043;-86
2022/10/02 14:00:13;;;;;;;9.88;1.63;;;18.80;99.90;;;;;;6270192;22;20453;-86
2022/10/02 14:02:52;;;;;;;11.93;2.13;;;18.90;99.90;;;;;;6272434;22;20015;-86
2022/10/02 14:05:35;;;;;;;11.70;1.85;;;19.00;99.90;;;;;;6271277;22;20015;-86